createdAt,value
2023-02-19T00:00:08.013Z,3.90
2023-02-19T00:02:43.504Z,3.53
2023-02-19T00:05:12.160Z,4.13
2023-02-19T00:07:43.252Z,4.30
2023-02-19T00:10:11.814Z,4.30
2023-02-19T00:12:40.326Z,3.83
2023-02-19T00:15:09.317Z,4.57
2023-02-19T00:17:37.798Z,3.47
2023-02-19T00:20:07.098Z,4.07
2023-02-19T00:22:35.697Z,3.50
2023-02-19T00:25:06.100Z,3.87
2023-02-19T00:27:34.839Z,3.50
2023-02-19T00:30:03.421Z,4.50
2023-02-19T00:32:32.318Z,4.23
2023-02-19T00:35:02.405Z,4.80
2023-02-19T00:37:31.024Z,4.37
2023-02-19T00:39:59.561Z,4.90
2023-02-19T00:42:29.670Z,4.37
2023-02-19T00:44:58.190Z,4.73
2023-02-19T00:47:26.858Z,4.77
2023-02-19T00:49:55.525Z,3.70
2023-02-19T00:52:24.067Z,4.23
2023-02-19T00:54:52.784Z,4.50
2023-02-19T00:57:21.276Z,4.50
2023-02-19T00:59:51.124Z,4.83
2023-02-19T01:02:19.672Z,3.90
2023-02-19T01:04:48.162Z,4.27
2023-02-19T01:07:16.727Z,3.97
2023-02-19T01:09:46.151Z,4.30
2023-02-19T01:12:14.633Z,3.80
2023-02-19T01:14:43.186Z,4.50
2023-02-19T01:17:13.373Z,3.60
2023-02-19T01:19:41.950Z,4.03
2023-02-19T01:22:10.492Z,3.60
2023-02-19T01:24:38.924Z,4.40
2023-02-19T01:27:07.465Z,3.20
2023-02-19T01:29:36.002Z,3.77
2023-02-19T01:32:04.741Z,3.83
2023-02-19T01:34:34.703Z,4.03
2023-02-19T01:37:03.562Z,4.77
2023-02-19T01:39:32.461Z,3.97
2023-02-19T01:42:01.237Z,4.00
2023-02-19T01:45:25.381Z,3.93
2023-02-19T01:48:08.878Z,4.10
2023-02-19T01:50:47.290Z,3.47
2023-02-19T01:53:23.564Z,3.70
2023-02-19T01:55:58.860Z,3.23
2023-02-19T01:58:33.059Z,3.70
2023-02-19T02:01:05.966Z,4.20
2023-02-19T02:03:38.789Z,3.50
2023-02-19T02:06:20.143Z,3.50
2023-02-19T02:09:09.146Z,2.70
2023-02-19T02:11:39.845Z,1.87
2023-02-19T02:14:08.595Z,3.10
2023-02-19T02:16:53.700Z,2.30
2023-02-19T02:19:57.555Z,3.20
2023-02-19T02:22:33.757Z,2.90
2023-02-19T02:25:57.101Z,3.60
2023-02-19T02:29:03.308Z,4.00
2023-02-19T02:31:40.568Z,1.43
2023-02-19T02:34:15.948Z,1.60
2023-02-19T02:36:49.878Z,2.10
2023-02-19T02:39:24.866Z,1.47
2023-02-19T02:42:12.425Z,2.10
2023-02-19T02:45:02.968Z,1.80
2023-02-19T02:47:43.037Z,1.67
2023-02-19T02:50:24.702Z,1.87
2023-02-19T02:53:18.184Z,1.80
2023-02-19T02:55:53.127Z,1.30
2023-02-19T02:58:25.457Z,1.63
2023-02-19T03:01:19.984Z,1.27
2023-02-19T03:03:58.753Z,1.70
2023-02-19T03:06:34.643Z,1.87
2023-02-19T03:09:14.479Z,1.90
2023-02-19T03:12:09.282Z,1.60
2023-02-19T03:15:05.071Z,1.70
2023-02-19T03:17:58.245Z,1.73
2023-02-19T03:20:29.900Z,1.77
2023-02-19T03:23:03.080Z,1.27
2023-02-19T03:25:54.161Z,1.80
2023-02-19T03:28:54.976Z,1.87
2023-02-19T03:31:29.174Z,1.77
2023-02-19T03:34:06.748Z,1.80
2023-02-19T03:36:43.997Z,2.13
2023-02-19T03:39:18.640Z,1.97
2023-02-19T03:41:58.956Z,1.57
2023-02-19T03:44:39.727Z,2.10
2023-02-19T03:47:20.021Z,2.23
2023-02-19T03:49:56.345Z,1.97
2023-02-19T03:52:39.754Z,1.93
2023-02-19T03:55:17.729Z,1.80
2023-02-19T03:57:54.837Z,1.80
2023-02-19T04:00:31.919Z,1.80
2023-02-19T04:03:12.249Z,1.70
2023-02-19T04:05:48.213Z,1.67
2023-02-19T04:08:23.285Z,1.70
2023-02-19T04:11:01.488Z,1.20
2023-02-19T04:13:39.251Z,1.77
2023-02-19T04:16:13.335Z,1.60
2023-02-19T04:18:47.183Z,1.50
2023-02-19T04:21:17.110Z,1.80
2023-02-19T04:23:47.758Z,1.40
2023-02-19T04:26:19.011Z,1.60
2023-02-19T04:28:48.531Z,1.60
2023-02-19T04:31:17.270Z,1.30
2023-02-19T04:33:45.800Z,1.20
2023-02-19T04:36:14.266Z,1.50
2023-02-19T04:38:42.746Z,1.30
2023-02-19T04:41:12.990Z,1.20
2023-02-19T04:43:41.667Z,1.07
2023-02-19T04:46:10.250Z,0.90
2023-02-19T04:48:39.054Z,1.03
2023-02-19T04:51:09.124Z,0.90
2023-02-19T04:53:38.846Z,0.80
2023-02-19T04:56:09.275Z,1.03
2023-02-19T04:58:40.450Z,0.90
2023-02-19T05:01:10.417Z,1.10
2023-02-19T05:03:39.401Z,0.87
2023-02-19T05:06:11.652Z,0.87
2023-02-19T05:08:40.594Z,0.90
2023-02-19T05:11:12.375Z,0.90
2023-02-19T05:13:42.680Z,0.80
2023-02-19T05:16:16.165Z,0.90
2023-02-19T05:18:46.917Z,0.80
2023-02-19T05:21:16.635Z,1.00
2023-02-19T05:23:45.496Z,0.90
2023-02-19T05:26:18.127Z,0.80
2023-02-19T05:28:50.784Z,1.10
2023-02-19T05:31:20.508Z,0.90
2023-02-19T05:33:51.357Z,0.80
2023-02-19T05:36:22.466Z,0.80
2023-02-19T05:38:55.160Z,1.00
2023-02-19T05:41:26.190Z,0.97
2023-02-19T05:43:57.669Z,1.00
2023-02-19T05:46:29.275Z,0.80
2023-02-19T05:48:59.124Z,0.77
2023-02-19T05:51:28.888Z,0.90
2023-02-19T05:53:58.816Z,1.03
2023-02-19T05:56:33.866Z,0.90
2023-02-19T05:59:07.929Z,0.90
2023-02-19T06:01:37.649Z,0.77
2023-02-19T06:04:06.795Z,1.10
2023-02-19T06:06:35.315Z,1.03
2023-02-19T06:09:04.534Z,1.10
2023-02-19T06:11:33.161Z,1.07
2023-02-19T06:14:03.076Z,1.20
2023-02-19T06:16:33.645Z,0.90
2023-02-19T06:19:04.851Z,1.10
2023-02-19T06:21:33.426Z,1.00
2023-02-19T06:24:07.797Z,1.20
2023-02-19T06:26:36.846Z,1.20
2023-02-19T06:29:06.730Z,1.33
2023-02-19T06:31:35.476Z,1.60
2023-02-19T06:34:06.093Z,1.60
2023-02-19T06:36:34.851Z,2.10
2023-02-19T06:39:05.084Z,1.80
2023-02-19T06:41:34.124Z,1.90
2023-02-19T06:44:02.931Z,1.73
2023-02-19T06:46:33.083Z,1.93
2023-02-19T06:49:01.717Z,1.80
2023-02-19T06:51:31.865Z,2.53
2023-02-19T06:54:02.299Z,2.20
2023-02-19T06:56:33.432Z,2.30
2023-02-19T06:59:05.426Z,1.90
2023-02-19T07:01:36.896Z,2.10
2023-02-19T07:04:07.452Z,2.13
2023-02-19T07:06:37.588Z,1.90
2023-02-19T07:09:09.487Z,2.43
2023-02-19T07:11:40.776Z,1.93
2023-02-19T07:14:16.229Z,2.50
2023-02-19T07:16:47.406Z,2.23
2023-02-19T07:19:16.949Z,2.40
2023-02-19T07:21:45.704Z,2.57
2023-02-19T07:24:14.326Z,2.83
2023-02-19T07:26:42.932Z,1.83
2023-02-19T07:29:11.791Z,2.40
2023-02-19T07:31:40.561Z,2.10
2023-02-19T07:34:10.543Z,1.90
2023-02-19T07:36:39.266Z,2.73
2023-02-19T07:39:10.052Z,1.70
2023-02-19T07:41:38.848Z,2.13
2023-02-19T07:44:08.145Z,2.20
2023-02-19T07:46:36.835Z,1.83
2023-02-19T07:49:07.225Z,2.00
2023-02-19T07:51:39.839Z,1.80
2023-02-19T07:54:08.467Z,2.00
2023-02-19T07:56:37.074Z,1.90
2023-02-19T07:59:06.272Z,2.27
2023-02-19T08:01:52.668Z,1.93
2023-02-19T08:04:21.399Z,2.27
2023-02-19T08:06:51.371Z,2.27
2023-02-19T08:09:20.044Z,2.80
2023-02-19T08:12:06.294Z,1.50
2023-02-19T08:14:34.902Z,1.50
2023-02-19T08:17:03.574Z,2.30
2023-02-19T08:19:32.171Z,2.10
2023-02-19T08:22:02.130Z,1.77
2023-02-19T08:24:31.276Z,1.30
2023-02-19T08:26:59.801Z,1.63
2023-02-19T08:29:28.624Z,1.60
2023-02-19T08:31:57.236Z,1.67
2023-02-19T08:34:26.029Z,1.33
2023-02-19T08:36:54.573Z,1.30
2023-02-19T08:39:24.693Z,1.30
2023-02-19T08:41:53.372Z,1.40
2023-02-19T08:44:22.232Z,1.50
2023-02-19T08:46:50.896Z,1.33
2023-02-19T08:49:19.560Z,1.53
2023-02-19T08:51:48.730Z,1.50
2023-02-19T08:54:17.516Z,1.10
2023-02-19T08:56:47.509Z,1.20
2023-02-19T08:59:16.280Z,1.30
2023-02-19T09:01:44.928Z,1.30
2023-02-19T09:04:16.223Z,1.27
2023-02-19T09:06:44.864Z,1.33
2023-02-19T09:09:13.520Z,1.30
2023-02-19T09:11:42.391Z,1.47
2023-02-19T09:14:12.475Z,1.43
2023-02-19T09:16:41.148Z,1.37
2023-02-19T09:19:10.048Z,1.70
2023-02-19T09:21:38.656Z,2.00
2023-02-19T09:24:09.773Z,2.20
2023-02-19T09:26:39.495Z,1.10
2023-02-19T09:29:08.177Z,1.10
2023-02-19T09:31:38.179Z,1.10
2023-02-19T09:34:07.872Z,1.00
2023-02-19T09:36:36.593Z,1.10
2023-02-19T09:39:07.757Z,1.00
2023-02-19T09:41:45.218Z,1.00
2023-02-19T09:44:19.673Z,1.17
2023-02-19T09:46:53.186Z,0.93
2023-02-19T09:49:28.458Z,1.20
2023-02-19T09:52:03.076Z,1.00
2023-02-19T09:54:33.405Z,1.50
2023-02-19T09:57:04.615Z,1.00
2023-02-19T09:59:45.665Z,0.90
2023-02-19T10:02:21.827Z,0.90
2023-02-19T10:04:53.204Z,1.20
2023-02-19T10:07:25.903Z,1.20
2023-02-19T10:10:01.055Z,1.20
2023-02-19T10:12:34.607Z,1.80
2023-02-19T10:15:13.793Z,1.10
2023-02-19T10:17:44.186Z,1.23
2023-02-19T10:20:17.323Z,1.60
2023-02-19T10:22:47.044Z,1.90
2023-02-19T10:25:18.023Z,1.43
2023-02-19T10:27:46.799Z,1.40
2023-02-19T10:30:22.700Z,2.50
2023-02-19T10:33:05.450Z,2.37
2023-02-19T10:35:40.232Z,1.63
2023-02-19T10:38:09.096Z,1.57
2023-02-19T10:40:44.569Z,1.47
2023-02-19T10:43:31.610Z,1.50
2023-02-19T10:46:06.042Z,1.50
2023-02-19T10:48:41.783Z,1.70
2023-02-19T10:51:21.769Z,1.60
2023-02-19T10:54:03.673Z,1.57
2023-02-19T10:56:33.722Z,1.60
2023-02-19T10:59:25.270Z,2.13
2023-02-19T11:01:59.753Z,1.17
2023-02-19T11:04:35.174Z,1.70
2023-02-19T11:07:11.798Z,1.83
2023-02-19T11:09:45.399Z,1.60
2023-02-19T11:12:24.347Z,1.60
2023-02-19T11:14:53.339Z,1.47
2023-02-19T11:17:26.383Z,1.53
2023-02-19T11:19:59.776Z,1.93
2023-02-19T11:22:33.596Z,1.90
2023-02-19T11:25:08.871Z,1.90
2023-02-19T11:27:54.314Z,1.60
2023-02-19T11:30:37.158Z,1.70
2023-02-19T11:33:25.473Z,1.87
2023-02-19T11:36:22.602Z,1.70
2023-02-19T11:38:51.945Z,1.80
2023-02-19T11:41:44.498Z,1.47
2023-02-19T11:44:33.092Z,1.83
2023-02-19T11:47:43.409Z,1.63
2023-02-19T11:50:25.516Z,1.83
2023-02-19T11:53:16.981Z,1.73
2023-02-19T11:56:08.458Z,1.97
2023-02-19T11:59:04.889Z,1.83
2023-02-19T12:02:29.225Z,1.87
2023-02-19T12:05:33.881Z,2.17
2023-02-19T12:08:57.785Z,1.53
2023-02-19T12:11:53.602Z,2.13
2023-02-19T12:15:10.085Z,1.80
2023-02-19T12:18:03.014Z,1.90
2023-02-19T12:20:45.621Z,1.87
2023-02-19T12:24:03.450Z,1.80
2023-02-19T12:26:43.969Z,1.73
2023-02-19T12:29:39.560Z,1.57
2023-02-19T12:32:38.471Z,1.50
2023-02-19T12:35:48.273Z,2.03
2023-02-19T12:38:32.484Z,1.90
2023-02-19T12:41:31.588Z,2.80
2023-02-19T12:44:05.417Z,2.70
2023-02-19T12:46:39.822Z,2.30
2023-02-19T12:49:17.190Z,1.83
2023-02-19T12:51:50.888Z,2.13
2023-02-19T12:54:26.282Z,1.83
2023-02-19T12:57:03.966Z,1.90
2023-02-19T12:59:38.647Z,2.33
2023-02-19T13:02:19.367Z,2.20
2023-02-19T13:05:01.243Z,2.20
2023-02-19T13:07:39.884Z,1.50
2023-02-19T13:10:33.438Z,1.90
2023-02-19T13:13:13.633Z,1.93
2023-02-19T13:15:48.520Z,1.93
2023-02-19T13:18:23.462Z,2.07
2023-02-19T13:20:55.386Z,1.77
2023-02-19T13:23:47.276Z,2.13
2023-02-19T13:26:55.021Z,1.97
2023-02-19T13:29:51.410Z,2.17
2023-02-19T13:32:53.447Z,1.97
2023-02-19T13:35:53.733Z,1.67
2023-02-19T13:38:23.293Z,1.90
2023-02-19T13:40:59.077Z,1.63
2023-02-19T13:43:34.797Z,2.10
2023-02-19T13:46:09.900Z,1.97
2023-02-19T13:48:41.913Z,2.00
2023-02-19T13:51:51.428Z,2.13
2023-02-19T13:54:28.906Z,1.80
2023-02-19T13:57:29.922Z,2.17
2023-02-19T14:00:00.149Z,1.63
2023-02-19T14:02:35.131Z,1.70
2023-02-19T14:05:08.479Z,1.50
2023-02-19T14:07:54.961Z,1.87
2023-02-19T14:11:02.050Z,1.80
2023-02-19T14:14:06.640Z,1.30
2023-02-19T14:17:08.441Z,1.83
2023-02-19T14:19:56.156Z,1.73
2023-02-19T14:23:12.037Z,1.80
2023-02-19T14:26:04.264Z,1.37
2023-02-19T14:28:45.392Z,1.87
2023-02-19T14:31:25.912Z,1.80
2023-02-19T14:33:57.937Z,1.60
2023-02-19T14:36:51.536Z,1.90
2023-02-19T14:39:30.979Z,1.90
2023-02-19T14:42:03.962Z,2.27
2023-02-19T14:44:48.372Z,2.10
2023-02-19T14:47:23.710Z,2.10
2023-02-19T14:49:59.240Z,2.33
2023-02-19T14:52:39.172Z,1.90
2023-02-19T14:55:16.394Z,2.00
2023-02-19T14:57:49.060Z,2.30
2023-02-19T15:00:28.133Z,1.93
2023-02-19T15:02:59.792Z,2.30
2023-02-19T15:05:32.874Z,2.17
2023-02-19T15:08:08.840Z,2.70
2023-02-19T15:10:40.153Z,2.03
2023-02-19T15:13:17.465Z,2.67
2023-02-19T15:15:47.798Z,2.43
2023-02-19T15:18:22.618Z,2.50
2023-02-19T15:20:59.013Z,2.63
2023-02-19T15:23:32.372Z,3.43
2023-02-19T15:26:01.204Z,3.20
2023-02-19T15:28:35.078Z,4.03
2023-02-19T15:31:16.853Z,3.20
2023-02-19T15:33:53.440Z,3.53
2023-02-19T15:36:30.550Z,4.07
2023-02-19T15:39:03.716Z,3.17
2023-02-19T15:41:36.136Z,4.63
2023-02-19T15:44:30.722Z,3.50
2023-02-19T15:47:09.270Z,3.70
2023-02-19T15:49:47.979Z,3.43
2023-02-19T15:52:28.193Z,3.53
2023-02-19T15:55:08.596Z,3.63
2023-02-19T15:57:45.204Z,2.57
2023-02-19T16:00:22.016Z,2.40
2023-02-19T16:02:51.391Z,2.53
2023-02-19T16:05:28.871Z,3.17
2023-02-19T16:08:17.614Z,4.03
2023-02-19T16:11:02.872Z,3.00
2023-02-19T16:13:35.151Z,3.40
2023-02-19T16:16:17.297Z,3.10
2023-02-19T16:18:48.904Z,3.00
2023-02-19T16:21:22.771Z,3.20
2023-02-19T16:23:59.264Z,3.23
2023-02-19T16:26:29.481Z,2.63
2023-02-19T16:28:58.251Z,3.40
2023-02-19T16:31:27.235Z,2.80
2023-02-19T16:34:18.129Z,2.80
2023-02-19T16:36:49.224Z,2.70
2023-02-19T16:39:27.003Z,2.87
2023-02-19T16:42:24.034Z,2.90
2023-02-19T16:44:52.725Z,3.13
2023-02-19T16:47:33.889Z,2.50
2023-02-19T16:50:08.815Z,2.37
2023-02-19T16:52:39.182Z,2.13
2023-02-19T16:55:14.795Z,2.93
2023-02-19T16:57:45.027Z,2.93
2023-02-19T17:00:19.386Z,3.20
2023-02-19T17:02:49.319Z,2.80
2023-02-19T17:05:20.149Z,2.70
2023-02-19T17:07:49.216Z,2.97
2023-02-19T17:10:21.097Z,2.33
2023-02-19T17:12:51.238Z,2.80
2023-02-19T17:15:20.881Z,2.80
2023-02-19T17:17:49.752Z,2.73
2023-02-19T17:20:28.605Z,3.00
2023-02-19T17:22:57.689Z,3.50
2023-02-19T17:25:26.431Z,3.60
2023-02-19T17:27:57.146Z,3.50
2023-02-19T17:30:31.403Z,3.80
2023-02-19T17:33:00.293Z,3.43
2023-02-19T17:35:29.144Z,6.40
2023-02-19T17:37:57.826Z,4.83
2023-02-19T17:40:33.437Z,6.80
2023-02-19T17:43:03.946Z,5.07
2023-02-19T17:45:33.068Z,3.40
2023-02-19T17:48:02.044Z,3.60
2023-02-19T17:50:33.201Z,3.30
2023-02-19T17:53:01.962Z,4.10
2023-02-19T17:55:30.580Z,4.87
2023-02-19T17:57:59.339Z,4.73
2023-02-19T18:00:32.246Z,3.83
2023-02-19T18:03:01.066Z,3.23
2023-02-19T18:05:30.038Z,3.53
2023-02-19T18:07:59.024Z,3.63
2023-02-19T18:10:27.730Z,3.30
2023-02-19T18:12:56.418Z,4.17
2023-02-19T18:15:28.778Z,2.80
2023-02-19T18:17:58.621Z,3.53
2023-02-19T18:20:31.209Z,4.07
2023-02-19T18:22:59.996Z,3.57
2023-02-19T18:25:28.652Z,3.07
2023-02-19T18:28:00.311Z,3.67
2023-02-19T18:30:30.821Z,3.90
2023-02-19T18:32:59.862Z,3.73
2023-02-19T18:35:28.507Z,3.30
2023-02-19T18:37:57.257Z,3.60
2023-02-19T18:40:26.938Z,3.47
2023-02-19T18:42:56.036Z,3.90
2023-02-19T18:45:24.783Z,4.13
2023-02-19T18:47:54.879Z,3.73
2023-02-19T18:50:23.515Z,3.67
2023-02-19T18:52:53.170Z,3.60
2023-02-19T18:55:22.050Z,3.93
2023-02-19T18:57:50.707Z,3.93
2023-02-19T19:00:25.528Z,4.60
2023-02-19T19:02:59.502Z,4.30
2023-02-19T19:05:28.667Z,4.27
2023-02-19T19:07:59.352Z,5.10
2023-02-19T19:10:28.994Z,3.57
2023-02-19T19:12:58.525Z,4.03
2023-02-19T19:15:27.543Z,5.13
2023-02-19T19:17:57.524Z,4.90
2023-02-19T19:20:26.267Z,4.33
2023-02-19T19:22:55.965Z,4.17
2023-02-19T19:25:24.699Z,5.10
2023-02-19T19:27:57.313Z,4.90
2023-02-19T19:30:26.119Z,4.50
2023-02-19T19:32:55.044Z,5.60
2023-02-19T19:35:25.031Z,4.30
2023-02-19T19:37:53.729Z,5.20
2023-02-19T19:40:22.621Z,5.60
2023-02-19T19:42:53.139Z,4.97
2023-02-19T19:45:22.301Z,3.87
2023-02-19T19:47:51.156Z,4.20
2023-02-19T19:50:20.281Z,7.27
2023-02-19T19:52:50.294Z,5.63
2023-02-19T19:55:21.442Z,4.10
2023-02-19T19:57:50.500Z,4.93
2023-02-19T20:00:20.458Z,5.27
2023-02-19T20:02:49.166Z,4.83
2023-02-19T20:05:18.031Z,4.83
2023-02-19T20:07:46.640Z,4.73
2023-02-19T20:10:19.995Z,5.20
2023-02-19T20:12:49.352Z,3.93
2023-02-19T20:15:22.712Z,5.50
2023-02-19T20:17:51.773Z,4.93
2023-02-19T20:20:22.640Z,4.50
2023-02-19T20:22:52.855Z,4.50
2023-02-19T20:25:24.947Z,5.27
2023-02-19T20:27:54.591Z,4.90
2023-02-19T20:30:25.127Z,4.27
2023-02-19T20:32:54.500Z,4.10
2023-02-19T20:35:26.487Z,4.00
2023-02-19T20:37:55.616Z,3.97
2023-02-19T20:40:27.746Z,4.17
2023-02-19T20:42:56.319Z,4.17
2023-02-19T20:45:25.132Z,3.67
2023-02-19T20:47:53.806Z,3.70
2023-02-19T20:50:23.531Z,4.00
2023-02-19T20:52:53.298Z,3.77
2023-02-19T20:55:23.666Z,4.53
2023-02-19T20:57:53.781Z,4.10
2023-02-19T21:00:23.373Z,4.70
2023-02-19T21:02:52.646Z,3.90
2023-02-19T21:05:21.742Z,3.50
2023-02-19T21:07:50.530Z,4.10
2023-02-19T21:10:19.560Z,3.90
2023-02-19T21:12:50.397Z,3.47
2023-02-19T21:15:21.067Z,3.43
2023-02-19T21:17:49.878Z,3.40
2023-02-19T21:20:18.941Z,2.90
2023-02-19T21:22:47.628Z,3.07
2023-02-19T21:25:16.386Z,3.30
2023-02-19T21:27:45.068Z,3.10
2023-02-19T21:30:14.351Z,3.80
2023-02-19T21:32:44.411Z,3.60
2023-02-19T21:35:13.216Z,2.53
2023-02-19T21:37:44.464Z,3.10
2023-02-19T21:40:14.556Z,2.60
2023-02-19T21:42:43.182Z,2.53
2023-02-19T21:45:11.852Z,2.63
2023-02-19T21:47:40.578Z,2.80
2023-02-19T21:50:11.463Z,2.50
2023-02-19T21:52:40.225Z,2.20
2023-02-19T21:55:09.313Z,1.73
2023-02-19T21:57:37.978Z,1.67
2023-02-19T22:00:08.830Z,2.10
2023-02-19T22:02:37.556Z,1.90
2023-02-19T22:05:07.048Z,1.70
2023-02-19T22:07:37.056Z,1.60
2023-02-19T22:10:06.793Z,1.60
2023-02-19T22:12:35.368Z,1.60
2023-02-19T22:15:04.078Z,1.80
2023-02-19T22:17:32.706Z,1.57
2023-02-19T22:20:01.471Z,1.47
2023-02-19T22:22:30.140Z,1.37
2023-02-19T22:25:00.234Z,1.43
2023-02-19T22:27:30.350Z,1.50
2023-02-19T22:29:59.072Z,1.47
2023-02-19T22:32:27.852Z,1.40
2023-02-19T22:34:56.605Z,1.33
2023-02-19T22:37:25.354Z,1.50
2023-02-19T22:39:54.240Z,1.97
2023-02-19T22:42:25.384Z,1.43
2023-02-19T22:44:54.304Z,1.40
2023-02-19T22:47:22.919Z,1.63
2023-02-19T22:49:51.679Z,1.20
2023-02-19T22:52:20.357Z,1.90
2023-02-19T22:54:49.255Z,1.40
2023-02-19T22:57:17.738Z,1.50
2023-02-19T22:59:47.674Z,1.73
2023-02-19T23:02:16.355Z,1.53
2023-02-19T23:04:45.174Z,1.50
2023-02-19T23:07:13.842Z,1.50
2023-02-19T23:09:42.690Z,1.70
2023-02-19T23:12:12.742Z,1.30
2023-02-19T23:14:41.462Z,1.97
2023-02-19T23:17:11.511Z,2.17
2023-02-19T23:19:40.119Z,1.80
2023-02-19T23:22:08.826Z,1.77
2023-02-19T23:24:37.369Z,2.00
2023-02-19T23:27:05.937Z,2.30
2023-02-19T23:29:34.623Z,2.10
2023-02-19T23:32:03.218Z,2.60
2023-02-19T23:34:33.295Z,3.00
2023-02-19T23:37:02.350Z,2.80
2023-02-19T23:39:31.109Z,2.97
2023-02-19T23:41:59.696Z,2.83
2023-02-19T23:44:28.636Z,3.10
2023-02-19T23:46:57.175Z,2.70
2023-02-19T23:49:25.875Z,3.30
2023-02-19T23:51:55.910Z,3.00
2023-02-19T23:54:24.837Z,2.87
2023-02-19T23:56:53.422Z,3.20
2023-02-19T23:59:22.057Z,3.00
